sensor_id;sensor_type;location;lat;lon;timestamp;P1;durP1;ratioP1;P2;durP2;ratioP2
19262;SDS011;9765;52.354;20.884;2023-05-10T03:47:30;12.80;;;5.70;;
19262;SDS011;9765;52.354;20.884;2023-05-10T03:49:57;12.90;;;5.13;;
19262;SDS011;9765;52.354;20.884;2023-05-10T03:52:27;12.40;;;5.53;;
19262;SDS011;9765;52.354;20.884;2023-05-10T03:55:00;12.23;;;5.67;;
19262;SDS011;9765;52.354;20.884;2023-05-10T03:57:28;15.47;;;5.57;;
19262;SDS011;9765;52.354;20.884;2023-05-10T03:59:57;16.93;;;6.27;;
19262;SDS011;9765;52.354;20.884;2023-05-10T04:02:26;13.60;;;5.23;;
19262;SDS011;9765;52.354;20.884;2023-05-10T04:04:54;13.53;;;5.27;;
19262;SDS011;9765;52.354;20.884;2023-05-10T04:07:21;16.20;;;5.33;;
19262;SDS011;9765;52.354;20.884;2023-05-10T04:09:53;20.17;;;5.07;;
19262;SDS011;9765;52.354;20.884;2023-05-10T04:12:22;14.30;;;5.33;;
19262;SDS011;9765;52.354;20.884;2023-05-10T04:14:49;13.13;;;5.00;;
19262;SDS011;9765;52.354;20.884;2023-05-10T04:17:16;14.87;;;4.80;;
19262;SDS011;9765;52.354;20.884;2023-05-10T04:19:43;15.50;;;4.87;;
19262;SDS011;9765;52.354;20.884;2023-05-10T04:22:11;14.97;;;4.90;;
19262;SDS011;9765;52.354;20.884;2023-05-10T04:24:38;17.20;;;4.80;;
19262;SDS011;9765;52.354;20.884;2023-05-10T04:27:05;17.33;;;4.53;;
19262;SDS011;9765;52.354;20.884;2023-05-10T04:29:31;10.60;;;4.23;;
19262;SDS011;9765;52.354;20.884;2023-05-10T04:31:58;17.07;;;4.40;;
19262;SDS011;9765;52.354;20.884;2023-05-10T04:34:25;8.33;;;4.17;;
19262;SDS011;9765;52.354;20.884;2023-05-10T04:36:54;10.20;;;4.37;;
19262;SDS011;9765;52.354;20.884;2023-05-10T04:39:23;11.87;;;4.50;;
19262;SDS011;9765;52.354;20.884;2023-05-10T04:41:49;16.47;;;4.17;;
19262;SDS011;9765;52.354;20.884;2023-05-10T04:44:16;10.03;;;4.20;;
19262;SDS011;9765;52.354;20.884;2023-05-10T04:46:44;7.87;;;4.50;;
19262;SDS011;9765;52.354;20.884;2023-05-10T04:49:14;14.80;;;3.80;;
19262;SDS011;9765;52.354;20.884;2023-05-10T04:51:42;10.77;;;3.83;;
19262;SDS011;9765;52.354;20.884;2023-05-10T04:54:11;12.73;;;4.03;;
19262;SDS011;9765;52.354;20.884;2023-05-10T04:56:42;11.97;;;4.47;;
19262;SDS011;9765;52.354;20.884;2023-05-10T04:59:11;10.30;;;3.93;;
19262;SDS011;9765;52.354;20.884;2023-05-10T05:01:41;8.50;;;4.00;;
19262;SDS011;9765;52.354;20.884;2023-05-10T05:04:08;10.93;;;3.83;;
19262;SDS011;9765;52.354;20.884;2023-05-10T05:06:35;9.87;;;4.07;;
19262;SDS011;9765;52.354;20.884;2023-05-10T05:09:03;10.40;;;4.10;;
19262;SDS011;9765;52.354;20.884;2023-05-10T05:11:29;17.90;;;4.50;;
19262;SDS011;9765;52.354;20.884;2023-05-10T05:13:57;15.50;;;4.90;;
19262;SDS011;9765;52.354;20.884;2023-05-10T05:16:24;10.80;;;4.17;;
19262;SDS011;9765;52.354;20.884;2023-05-10T05:18:51;14.33;;;4.20;;
19262;SDS011;9765;52.354;20.884;2023-05-10T05:21:19;8.37;;;3.87;;
19262;SDS011;9765;52.354;20.884;2023-05-10T05:23:46;9.83;;;4.13;;
19262;SDS011;9765;52.354;20.884;2023-05-10T05:26:16;10.23;;;3.73;;
19262;SDS011;9765;52.354;20.884;2023-05-10T05:28:42;8.23;;;3.87;;
19262;SDS011;9765;52.354;20.884;2023-05-10T05:31:11;13.53;;;4.10;;
19262;SDS011;9765;52.354;20.884;2023-05-10T05:33:40;10.03;;;4.07;;
19262;SDS011;9765;52.354;20.884;2023-05-10T05:36:09;13.33;;;4.17;;
19262;SDS011;9765;52.354;20.884;2023-05-10T05:38:38;24.33;;;5.50;;
19262;SDS011;9765;52.354;20.884;2023-05-10T05:41:05;32.50;;;5.63;;
19262;SDS011;9765;52.354;20.884;2023-05-10T05:43:32;63.93;;;7.90;;
19262;SDS011;9765;52.354;20.884;2023-05-10T05:46:01;18.70;;;4.77;;
19262;SDS011;9765;52.354;20.884;2023-05-10T05:48:30;21.80;;;4.60;;
19262;SDS011;9765;52.354;20.884;2023-05-10T05:50:57;15.70;;;4.17;;
19262;SDS011;9765;52.354;20.884;2023-05-10T05:53:24;18.33;;;3.83;;
19262;SDS011;9765;52.354;20.884;2023-05-10T05:55:51;50.53;;;7.03;;
19262;SDS011;9765;52.354;20.884;2023-05-10T05:58:19;15.97;;;4.07;;
19262;SDS011;9765;52.354;20.884;2023-05-10T06:00:50;14.50;;;3.67;;
19262;SDS011;9765;52.354;20.884;2023-05-10T06:03:17;27.83;;;5.53;;
19262;SDS011;9765;52.354;20.884;2023-05-10T06:05:46;44.57;;;6.50;;
19262;SDS011;9765;52.354;20.884;2023-05-10T06:08:13;23.77;;;4.93;;
19262;SDS011;9765;52.354;20.884;2023-05-10T06:10:46;23.80;;;5.07;;
19262;SDS011;9765;52.354;20.884;2023-05-10T06:13:13;75.47;;;7.83;;
19262;SDS011;9765;52.354;20.884;2023-05-10T06:15:41;32.23;;;4.67;;
19262;SDS011;9765;52.354;20.884;2023-05-10T06:18:08;76.80;;;9.33;;
19262;SDS011;9765;52.354;20.884;2023-05-10T06:20:36;97.60;;;8.80;;
19262;SDS011;9765;52.354;20.884;2023-05-10T06:23:04;14.60;;;3.73;;
19262;SDS011;9765;52.354;20.884;2023-05-10T06:25:34;58.13;;;6.57;;
19262;SDS011;9765;52.354;20.884;2023-05-10T06:28:07;52.60;;;5.77;;
19262;SDS011;9765;52.354;20.884;2023-05-10T06:30:35;18.00;;;4.23;;
19262;SDS011;9765;52.354;20.884;2023-05-10T06:33:04;47.13;;;6.27;;
19262;SDS011;9765;52.354;20.884;2023-05-10T06:35:31;12.30;;;3.43;;
19262;SDS011;9765;52.354;20.884;2023-05-10T06:38:04;16.00;;;3.70;;
19262;SDS011;9765;52.354;20.884;2023-05-10T06:40:31;16.07;;;3.40;;
19262;SDS011;9765;52.354;20.884;2023-05-10T06:43:01;12.03;;;3.50;;
19262;SDS011;9765;52.354;20.884;2023-05-10T06:45:27;11.67;;;3.37;;
19262;SDS011;9765;52.354;20.884;2023-05-10T06:47:56;55.07;;;6.33;;
19262;SDS011;9765;52.354;20.884;2023-05-10T06:50:22;26.47;;;4.17;;
19262;SDS011;9765;52.354;20.884;2023-05-10T06:52:49;47.60;;;6.67;;
19262;SDS011;9765;52.354;20.884;2023-05-10T06:55:22;12.57;;;3.73;;
19262;SDS011;9765;52.354;20.884;2023-05-10T06:57:51;11.43;;;3.47;;
19262;SDS011;9765;52.354;20.884;2023-05-10T07:00:18;9.27;;;2.77;;
19262;SDS011;9765;52.354;20.884;2023-05-10T07:02:48;6.27;;;2.60;;
19262;SDS011;9765;52.354;20.884;2023-05-10T07:05:14;3.90;;;2.37;;
19262;SDS011;9765;52.354;20.884;2023-05-10T07:07:44;10.33;;;3.33;;
19262;SDS011;9765;52.354;20.884;2023-05-10T07:10:11;11.73;;;2.37;;
19262;SDS011;9765;52.354;20.884;2023-05-10T07:12:39;6.40;;;2.70;;
19262;SDS011;9765;52.354;20.884;2023-05-10T07:15:07;9.33;;;2.30;;
19262;SDS011;9765;52.354;20.884;2023-05-10T07:17:38;6.13;;;2.30;;
19262;SDS011;9765;52.354;20.884;2023-05-10T07:20:08;10.93;;;2.33;;
19262;SDS011;9765;52.354;20.884;2023-05-10T07:22:35;5.83;;;2.57;;
19262;SDS011;9765;52.354;20.884;2023-05-10T07:25:04;8.50;;;2.57;;
19262;SDS011;9765;52.354;20.884;2023-05-10T07:27:34;12.80;;;2.80;;
19262;SDS011;9765;52.354;20.884;2023-05-10T07:30:05;7.27;;;2.47;;
19262;SDS011;9765;52.354;20.884;2023-05-10T07:32:36;18.67;;;2.87;;
19262;SDS011;9765;52.354;20.884;2023-05-10T07:35:07;5.57;;;2.40;;
19262;SDS011;9765;52.354;20.884;2023-05-10T07:37:36;8.90;;;1.97;;
19262;SDS011;9765;52.354;20.884;2023-05-10T07:40:03;5.97;;;2.37;;
19262;SDS011;9765;52.354;20.884;2023-05-10T07:42:32;10.37;;;2.50;;
19262;SDS011;9765;52.354;20.884;2023-05-10T07:45:02;6.77;;;2.20;;
19262;SDS011;9765;52.354;20.884;2023-05-10T07:47:34;8.97;;;2.30;;
19262;SDS011;9765;52.354;20.884;2023-05-10T07:50:01;5.60;;;2.00;;
19262;SDS011;9765;52.354;20.884;2023-05-10T07:52:34;19.40;;;2.57;;
19262;SDS011;9765;52.354;20.884;2023-05-10T07:55:01;20.77;;;2.53;;
19262;SDS011;9765;52.354;20.884;2023-05-10T07:57:27;7.50;;;2.00;;
19262;SDS011;9765;52.354;20.884;2023-05-10T07:59:56;5.87;;;2.27;;
19262;SDS011;9765;52.354;20.884;2023-05-10T08:02:26;7.63;;;2.30;;
19262;SDS011;9765;52.354;20.884;2023-05-10T08:04:52;11.10;;;2.40;;
19262;SDS011;9765;52.354;20.884;2023-05-10T08:07:22;4.73;;;2.10;;
19262;SDS011;9765;52.354;20.884;2023-05-10T08:09:53;7.00;;;1.90;;
19262;SDS011;9765;52.354;20.884;2023-05-10T08:12:19;8.60;;;2.47;;
19262;SDS011;9765;52.354;20.884;2023-05-10T08:14:49;19.77;;;3.10;;
19262;SDS011;9765;52.354;20.884;2023-05-10T08:17:19;13.17;;;2.30;;
19262;SDS011;9765;52.354;20.884;2023-05-10T08:19:50;14.63;;;2.90;;
19262;SDS011;9765;52.354;20.884;2023-05-10T08:22:17;9.97;;;2.07;;
19262;SDS011;9765;52.354;20.884;2023-05-10T08:24:44;9.43;;;2.20;;
19262;SDS011;9765;52.354;20.884;2023-05-10T08:27:15;5.47;;;2.17;;
19262;SDS011;9765;52.354;20.884;2023-05-10T08:29:41;18.30;;;2.50;;
19262;SDS011;9765;52.354;20.884;2023-05-10T08:32:08;36.03;;;3.47;;
19262;SDS011;9765;52.354;20.884;2023-05-10T08:34:40;7.97;;;2.30;;
19262;SDS011;9765;52.354;20.884;2023-05-10T08:37:10;11.17;;;2.13;;
19262;SDS011;9765;52.354;20.884;2023-05-10T08:39:38;7.57;;;2.00;;
19262;SDS011;9765;52.354;20.884;2023-05-10T08:42:04;9.77;;;2.43;;
19262;SDS011;9765;52.354;20.884;2023-05-10T08:44:35;11.03;;;2.30;;
19262;SDS011;9765;52.354;20.884;2023-05-10T08:47:04;8.53;;;2.20;;
19262;SDS011;9765;52.354;20.884;2023-05-10T08:49:33;7.87;;;2.03;;
19262;SDS011;9765;52.354;20.884;2023-05-10T08:52:05;9.63;;;2.00;;
19262;SDS011;9765;52.354;20.884;2023-05-10T08:54:34;8.13;;;2.37;;
19262;SDS011;9765;52.354;20.884;2023-05-10T08:57:07;11.37;;;1.83;;
19262;SDS011;9765;52.354;20.884;2023-05-10T08:59:36;7.43;;;2.00;;
19262;SDS011;9765;52.354;20.884;2023-05-10T09:02:06;11.30;;;2.00;;
19262;SDS011;9765;52.354;20.884;2023-05-10T09:04:35;10.83;;;2.93;;
19262;SDS011;9765;52.354;20.884;2023-05-10T09:07:06;8.60;;;2.07;;
19262;SDS011;9765;52.354;20.884;2023-05-10T09:09:34;6.37;;;2.00;;
19262;SDS011;9765;52.354;20.884;2023-05-10T09:12:02;17.00;;;2.80;;
19262;SDS011;9765;52.354;20.884;2023-05-10T09:14:29;5.90;;;2.00;;
19262;SDS011;9765;52.354;20.884;2023-05-10T09:17:02;10.57;;;2.30;;
19262;SDS011;9765;52.354;20.884;2023-05-10T09:19:46;4.63;;;2.20;;
19262;SDS011;9765;52.354;20.884;2023-05-10T09:22:18;5.27;;;2.00;;
19262;SDS011;9765;52.354;20.884;2023-05-10T09:24:46;4.50;;;2.23;;
19262;SDS011;9765;52.354;20.884;2023-05-10T09:27:16;8.47;;;1.70;;
19262;SDS011;9765;52.354;20.884;2023-05-10T09:29:52;5.93;;;2.20;;
19262;SDS011;9765;52.354;20.884;2023-05-10T09:32:22;10.87;;;2.23;;
19262;SDS011;9765;52.354;20.884;2023-05-10T09:35:05;8.27;;;2.20;;
19262;SDS011;9765;52.354;20.884;2023-05-10T09:37:35;10.13;;;2.07;;
19262;SDS011;9765;52.354;20.884;2023-05-10T09:40:10;6.97;;;2.20;;
19262;SDS011;9765;52.354;20.884;2023-05-10T09:42:42;4.60;;;2.17;;
19262;SDS011;9765;52.354;20.884;2023-05-10T09:45:16;4.37;;;1.83;;
19262;SDS011;9765;52.354;20.884;2023-05-10T09:47:43;5.73;;;2.33;;
19262;SDS011;9765;52.354;20.884;2023-05-10T09:50:13;9.37;;;2.17;;
19262;SDS011;9765;52.354;20.884;2023-05-10T09:52:46;7.53;;;1.90;;
19262;SDS011;9765;52.354;20.884;2023-05-10T09:55:16;5.83;;;2.20;;
19262;SDS011;9765;52.354;20.884;2023-05-10T09:57:44;7.10;;;2.10;;
19262;SDS011;9765;52.354;20.884;2023-05-10T10:00:18;6.07;;;2.47;;
19262;SDS011;9765;52.354;20.884;2023-05-10T10:02:48;9.87;;;2.00;;
19262;SDS011;9765;52.354;20.884;2023-05-10T10:05:20;14.80;;;2.67;;
19262;SDS011;9765;52.354;20.884;2023-05-10T10:07:56;4.43;;;1.93;;
19262;SDS011;9765;52.354;20.884;2023-05-10T10:10:25;8.43;;;2.30;;
19262;SDS011;9765;52.354;20.884;2023-05-10T10:12:57;4.90;;;1.90;;
19262;SDS011;9765;52.354;20.884;2023-05-10T10:15:26;8.97;;;2.20;;
19262;SDS011;9765;52.354;20.884;2023-05-10T10:17:54;6.73;;;2.10;;
19262;SDS011;9765;52.354;20.884;2023-05-10T10:20:22;9.07;;;2.60;;
19262;SDS011;9765;52.354;20.884;2023-05-10T10:22:51;10.37;;;2.07;;
19262;SDS011;9765;52.354;20.884;2023-05-10T10:25:20;13.07;;;2.10;;
19262;SDS011;9765;52.354;20.884;2023-05-10T10:27:58;6.53;;;2.40;;
19262;SDS011;9765;52.354;20.884;2023-05-10T10:30:35;7.57;;;2.20;;
19262;SDS011;9765;52.354;20.884;2023-05-10T10:33:18;7.63;;;2.20;;
19262;SDS011;9765;52.354;20.884;2023-05-10T10:36:02;3.97;;;2.00;;
19262;SDS011;9765;52.354;20.884;2023-05-10T10:38:37;10.30;;;2.43;;
19262;SDS011;9765;52.354;20.884;2023-05-10T10:41:26;12.07;;;2.47;;
19262;SDS011;9765;52.354;20.884;2023-05-10T10:47:06;6.53;;;2.00;;
19262;SDS011;9765;52.354;20.884;2023-05-10T10:50:02;6.30;;;1.97;;
19262;SDS011;9765;52.354;20.884;2023-05-10T10:52:33;7.27;;;2.20;;
19262;SDS011;9765;52.354;20.884;2023-05-10T10:55:01;13.60;;;2.40;;
19262;SDS011;9765;52.354;20.884;2023-05-10T10:57:44;7.27;;;2.20;;
19262;SDS011;9765;52.354;20.884;2023-05-10T11:00:26;12.37;;;2.20;;
19262;SDS011;9765;52.354;20.884;2023-05-10T11:02:58;6.57;;;1.83;;
19262;SDS011;9765;52.354;20.884;2023-05-10T11:05:34;14.67;;;2.60;;
19262;SDS011;9765;52.354;20.884;2023-05-10T11:08:06;27.67;;;2.83;;
19262;SDS011;9765;52.354;20.884;2023-05-10T11:10:39;33.77;;;3.30;;
19262;SDS011;9765;52.354;20.884;2023-05-10T11:13:07;10.93;;;2.13;;
19262;SDS011;9765;52.354;20.884;2023-05-10T11:15:36;9.83;;;2.00;;
19262;SDS011;9765;52.354;20.884;2023-05-10T11:18:16;7.07;;;1.90;;
19262;SDS011;9765;52.354;20.884;2023-05-10T11:20:46;7.67;;;2.03;;
19262;SDS011;9765;52.354;20.884;2023-05-10T11:23:17;5.40;;;1.60;;
19262;SDS011;9765;52.354;20.884;2023-05-10T11:25:46;7.93;;;2.07;;
19262;SDS011;9765;52.354;20.884;2023-05-10T11:28:19;4.57;;;1.80;;
19262;SDS011;9765;52.354;20.884;2023-05-10T11:30:48;5.20;;;1.90;;
19262;SDS011;9765;52.354;20.884;2023-05-10T11:33:15;5.07;;;1.90;;
19262;SDS011;9765;52.354;20.884;2023-05-10T11:35:44;6.07;;;2.00;;
19262;SDS011;9765;52.354;20.884;2023-05-10T11:38:12;7.60;;;2.00;;
19262;SDS011;9765;52.354;20.884;2023-05-10T11:40:42;7.23;;;2.10;;
19262;SDS011;9765;52.354;20.884;2023-05-10T11:43:09;4.30;;;2.00;;
19262;SDS011;9765;52.354;20.884;2023-05-10T11:45:39;4.63;;;1.70;;
19262;SDS011;9765;52.354;20.884;2023-05-10T11:48:11;5.33;;;2.00;;
19262;SDS011;9765;52.354;20.884;2023-05-10T11:50:38;10.77;;;2.43;;
19262;SDS011;9765;52.354;20.884;2023-05-10T11:53:05;6.50;;;2.37;;
19262;SDS011;9765;52.354;20.884;2023-05-10T11:55:34;8.57;;;2.03;;
19262;SDS011;9765;52.354;20.884;2023-05-10T11:58:05;24.13;;;3.40;;
19262;SDS011;9765;52.354;20.884;2023-05-10T12:00:33;8.93;;;2.23;;
19262;SDS011;9765;52.354;20.884;2023-05-10T12:03:00;4.17;;;1.80;;
19262;SDS011;9765;52.354;20.884;2023-05-10T12:05:29;5.67;;;2.00;;
19262;SDS011;9765;52.354;20.884;2023-05-10T12:08:11;4.57;;;2.40;;
19262;SDS011;9765;52.354;20.884;2023-05-10T12:10:39;11.93;;;2.10;;
19262;SDS011;9765;52.354;20.884;2023-05-10T12:13:06;10.90;;;2.03;;
19262;SDS011;9765;52.354;20.884;2023-05-10T12:15:38;3.97;;;2.07;;
19262;SDS011;9765;52.354;20.884;2023-05-10T12:18:10;12.60;;;2.63;;
19262;SDS011;9765;52.354;20.884;2023-05-10T12:20:44;7.70;;;2.30;;
19262;SDS011;9765;52.354;20.884;2023-05-10T12:23:13;11.60;;;2.20;;
19262;SDS011;9765;52.354;20.884;2023-05-10T12:25:40;8.27;;;2.00;;
19262;SDS011;9765;52.354;20.884;2023-05-10T12:28:15;7.93;;;1.97;;
19262;SDS011;9765;52.354;20.884;2023-05-10T12:30:46;16.20;;;2.30;;
19262;SDS011;9765;52.354;20.884;2023-05-10T12:33:14;9.73;;;1.90;;
19262;SDS011;9765;52.354;20.884;2023-05-10T12:35:46;9.33;;;2.10;;
19262;SDS011;9765;52.354;20.884;2023-05-10T12:38:26;13.73;;;2.10;;
19262;SDS011;9765;52.354;20.884;2023-05-10T12:40:57;13.23;;;2.20;;
19262;SDS011;9765;52.354;20.884;2023-05-10T12:43:26;10.50;;;2.23;;
19262;SDS011;9765;52.354;20.884;2023-05-10T12:45:56;5.60;;;2.20;;
19262;SDS011;9765;52.354;20.884;2023-05-10T12:48:26;11.77;;;2.00;;
19262;SDS011;9765;52.354;20.884;2023-05-10T12:50:55;8.57;;;1.97;;
19262;SDS011;9765;52.354;20.884;2023-05-10T12:53:24;8.20;;;1.90;;
19262;SDS011;9765;52.354;20.884;2023-05-10T12:55:54;10.43;;;2.17;;
19262;SDS011;9765;52.354;20.884;2023-05-10T12:58:22;12.13;;;2.40;;
19262;SDS011;9765;52.354;20.884;2023-05-10T13:00:50;12.80;;;2.37;;
19262;SDS011;9765;52.354;20.884;2023-05-10T13:03:17;16.20;;;2.70;;
19262;SDS011;9765;52.354;20.884;2023-05-10T13:05:45;6.43;;;2.50;;
19262;SDS011;9765;52.354;20.884;2023-05-10T13:08:15;10.90;;;2.40;;
19262;SDS011;9765;52.354;20.884;2023-05-10T13:10:42;7.70;;;1.70;;
19262;SDS011;9765;52.354;20.884;2023-05-10T13:13:10;9.43;;;2.10;;
19262;SDS011;9765;52.354;20.884;2023-05-10T13:15:37;6.97;;;1.93;;
19262;SDS011;9765;52.354;20.884;2023-05-10T13:18:04;7.80;;;2.00;;
19262;SDS011;9765;52.354;20.884;2023-05-10T13:20:32;7.60;;;2.13;;
19262;SDS011;9765;52.354;20.884;2023-05-10T13:22:58;8.13;;;1.93;;
19262;SDS011;9765;52.354;20.884;2023-05-10T13:25:28;9.70;;;2.07;;
19262;SDS011;9765;52.354;20.884;2023-05-10T13:27:55;7.93;;;2.60;;
19262;SDS011;9765;52.354;20.884;2023-05-10T13:30:25;7.63;;;1.97;;
19262;SDS011;9765;52.354;20.884;2023-05-10T13:32:55;11.70;;;2.40;;
19262;SDS011;9765;52.354;20.884;2023-05-10T13:35:22;10.43;;;2.07;;
19262;SDS011;9765;52.354;20.884;2023-05-10T13:37:52;14.93;;;2.83;;
19262;SDS011;9765;52.354;20.884;2023-05-10T13:40:21;7.83;;;1.80;;
19262;SDS011;9765;52.354;20.884;2023-05-10T13:42:50;9.53;;;2.30;;
19262;SDS011;9765;52.354;20.884;2023-05-10T13:45:18;8.47;;;2.23;;
19262;SDS011;9765;52.354;20.884;2023-05-10T13:47:45;9.00;;;2.50;;
19262;SDS011;9765;52.354;20.884;2023-05-10T13:50:12;7.03;;;2.13;;
19262;SDS011;9765;52.354;20.884;2023-05-10T13:52:39;9.37;;;2.30;;
19262;SDS011;9765;52.354;20.884;2023-05-10T13:55:12;11.23;;;1.80;;
19262;SDS011;9765;52.354;20.884;2023-05-10T13:57:39;7.13;;;2.20;;
19262;SDS011;9765;52.354;20.884;2023-05-10T14:00:08;5.10;;;2.03;;
19262;SDS011;9765;52.354;20.884;2023-05-10T14:02:35;6.27;;;2.00;;
19262;SDS011;9765;52.354;20.884;2023-05-10T14:05:02;8.10;;;2.27;;
19262;SDS011;9765;52.354;20.884;2023-05-10T14:07:30;11.93;;;2.43;;
19262;SDS011;9765;52.354;20.884;2023-05-10T14:09:58;5.80;;;2.10;;
19262;SDS011;9765;52.354;20.884;2023-05-10T14:12:25;8.00;;;2.17;;
19262;SDS011;9765;52.354;20.884;2023-05-10T14:14:52;6.50;;;2.10;;
19262;SDS011;9765;52.354;20.884;2023-05-10T14:17:20;6.63;;;1.87;;
19262;SDS011;9765;52.354;20.884;2023-05-10T14:19:47;12.27;;;2.00;;
19262;SDS011;9765;52.354;20.884;2023-05-10T14:22:14;3.97;;;1.93;;
19262;SDS011;9765;52.354;20.884;2023-05-10T14:24:44;8.43;;;1.83;;
19262;SDS011;9765;52.354;20.884;2023-05-10T14:27:14;5.73;;;1.87;;
19262;SDS011;9765;52.354;20.884;2023-05-10T14:29:41;6.13;;;2.00;;
19262;SDS011;9765;52.354;20.884;2023-05-10T14:32:08;9.73;;;2.40;;
19262;SDS011;9765;52.354;20.884;2023-05-10T14:34:37;5.60;;;2.03;;
19262;SDS011;9765;52.354;20.884;2023-05-10T14:37:04;8.50;;;2.10;;
19262;SDS011;9765;52.354;20.884;2023-05-10T14:39:35;6.00;;;2.00;;
19262;SDS011;9765;52.354;20.884;2023-05-10T14:42:03;12.10;;;2.30;;
19262;SDS011;9765;52.354;20.884;2023-05-10T14:44:30;4.83;;;1.80;;
19262;SDS011;9765;52.354;20.884;2023-05-10T14:46:57;15.80;;;2.20;;
19262;SDS011;9765;52.354;20.884;2023-05-10T14:49:24;10.83;;;1.87;;
19262;SDS011;9765;52.354;20.884;2023-05-10T14:51:53;8.03;;;2.17;;
19262;SDS011;9765;52.354;20.884;2023-05-10T14:54:21;4.27;;;1.80;;
19262;SDS011;9765;52.354;20.884;2023-05-10T14:56:49;9.03;;;2.20;;
19262;SDS011;9765;52.354;20.884;2023-05-10T14:59:20;8.33;;;2.10;;
19262;SDS011;9765;52.354;20.884;2023-05-10T15:01:47;6.33;;;1.90;;
19262;SDS011;9765;52.354;20.884;2023-05-10T15:04:20;8.77;;;2.10;;
19262;SDS011;9765;52.354;20.884;2023-05-10T15:06:48;8.43;;;2.00;;
19262;SDS011;9765;52.354;20.884;2023-05-10T15:09:17;6.67;;;1.70;;
19262;SDS011;9765;52.354;20.884;2023-05-10T15:11:44;5.40;;;1.80;;
19262;SDS011;9765;52.354;20.884;2023-05-10T15:14:12;9.60;;;2.23;;
19262;SDS011;9765;52.354;20.884;2023-05-10T15:16:44;13.77;;;2.07;;
19262;SDS011;9765;52.354;20.884;2023-05-10T15:19:11;7.77;;;2.30;;
19262;SDS011;9765;52.354;20.884;2023-05-10T15:21:37;6.27;;;2.20;;
19262;SDS011;9765;52.354;20.884;2023-05-10T15:24:07;10.30;;;1.87;;
19262;SDS011;9765;52.354;20.884;2023-05-10T15:26:36;9.67;;;2.20;;
19262;SDS011;9765;52.354;20.884;2023-05-10T15:29:02;7.27;;;2.07;;
19262;SDS011;9765;52.354;20.884;2023-05-10T15:31:29;4.30;;;1.97;;
19262;SDS011;9765;52.354;20.884;2023-05-10T15:34:00;5.70;;;2.03;;
19262;SDS011;9765;52.354;20.884;2023-05-10T15:36:27;4.93;;;2.10;;
19262;SDS011;9765;52.354;20.884;2023-05-10T15:38:59;10.90;;;1.90;;
19262;SDS011;9765;52.354;20.884;2023-05-10T15:41:29;7.00;;;1.93;;
19262;SDS011;9765;52.354;20.884;2023-05-10T15:44:03;7.93;;;2.50;;
19262;SDS011;9765;52.354;20.884;2023-05-10T15:46:31;8.80;;;1.90;;
19262;SDS011;9765;52.354;20.884;2023-05-10T15:48:58;3.90;;;1.87;;
19262;SDS011;9765;52.354;20.884;2023-05-10T15:51:31;8.83;;;1.93;;
19262;SDS011;9765;52.354;20.884;2023-05-10T15:53:59;5.43;;;2.10;;
19262;SDS011;9765;52.354;20.884;2023-05-10T15:56:28;6.47;;;2.20;;
19262;SDS011;9765;52.354;20.884;2023-05-10T15:58:55;6.53;;;2.00;;
19262;SDS011;9765;52.354;20.884;2023-05-10T16:01:27;5.93;;;1.90;;
19262;SDS011;9765;52.354;20.884;2023-05-10T16:03:56;4.67;;;1.67;;
19262;SDS011;9765;52.354;20.884;2023-05-10T16:06:26;5.27;;;1.90;;
19262;SDS011;9765;52.354;20.884;2023-05-10T16:08:56;5.73;;;1.80;;
19262;SDS011;9765;52.354;20.884;2023-05-10T16:11:26;9.57;;;2.00;;
19262;SDS011;9765;52.354;20.884;2023-05-10T16:13:56;4.83;;;2.23;;
19262;SDS011;9765;52.354;20.884;2023-05-10T16:16:23;5.97;;;2.07;;
19262;SDS011;9765;52.354;20.884;2023-05-10T16:18:52;4.37;;;1.90;;
19262;SDS011;9765;52.354;20.884;2023-05-10T16:21:19;5.30;;;1.90;;
19262;SDS011;9765;52.354;20.884;2023-05-10T16:23:46;6.63;;;2.07;;
19262;SDS011;9765;52.354;20.884;2023-05-10T16:26:15;5.93;;;1.80;;
19262;SDS011;9765;52.354;20.884;2023-05-10T16:28:49;8.87;;;1.87;;
19262;SDS011;9765;52.354;20.884;2023-05-10T16:31:16;7.77;;;1.73;;
19262;SDS011;9765;52.354;20.884;2023-05-10T16:33:44;3.73;;;1.80;;
19262;SDS011;9765;52.354;20.884;2023-05-10T16:36:12;6.33;;;2.17;;
19262;SDS011;9765;52.354;20.884;2023-05-10T16:38:39;5.53;;;1.90;;
19262;SDS011;9765;52.354;20.884;2023-05-10T16:41:06;9.30;;;2.03;;
19262;SDS011;9765;52.354;20.884;2023-05-10T16:43:38;6.67;;;2.50;;
19262;SDS011;9765;52.354;20.884;2023-05-10T16:46:10;3.77;;;1.80;;
19262;SDS011;9765;52.354;20.884;2023-05-10T16:48:40;7.77;;;2.10;;
19262;SDS011;9765;52.354;20.884;2023-05-10T16:51:07;5.03;;;1.63;;
19262;SDS011;9765;52.354;20.884;2023-05-10T16:53:37;8.67;;;1.93;;
19262;SDS011;9765;52.354;20.884;2023-05-10T16:56:04;8.43;;;1.80;;
19262;SDS011;9765;52.354;20.884;2023-05-10T16:58:32;5.80;;;1.90;;
19262;SDS011;9765;52.354;20.884;2023-05-10T17:01:03;6.83;;;1.73;;
19262;SDS011;9765;52.354;20.884;2023-05-10T17:03:31;3.50;;;1.80;;
19262;SDS011;9765;52.354;20.884;2023-05-10T17:05:58;4.43;;;1.80;;
19262;SDS011;9765;52.354;20.884;2023-05-10T17:08:25;7.47;;;1.93;;
19262;SDS011;9765;52.354;20.884;2023-05-10T17:10:56;5.63;;;1.73;;
19262;SDS011;9765;52.354;20.884;2023-05-10T17:13:27;6.30;;;1.73;;
19262;SDS011;9765;52.354;20.884;2023-05-10T17:15:54;5.70;;;1.73;;
19262;SDS011;9765;52.354;20.884;2023-05-10T17:18:21;15.90;;;2.87;;
19262;SDS011;9765;52.354;20.884;2023-05-10T17:20:49;10.20;;;2.03;;
19262;SDS011;9765;52.354;20.884;2023-05-10T17:23:16;8.70;;;2.37;;
19262;SDS011;9765;52.354;20.884;2023-05-10T17:25:43;5.00;;;1.90;;
19262;SDS011;9765;52.354;20.884;2023-05-10T17:28:11;5.03;;;2.00;;
19262;SDS011;9765;52.354;20.884;2023-05-10T17:30:38;4.30;;;1.73;;
19262;SDS011;9765;52.354;20.884;2023-05-10T17:33:05;6.60;;;1.90;;
19262;SDS011;9765;52.354;20.884;2023-05-10T17:35:35;5.70;;;1.90;;
19262;SDS011;9765;52.354;20.884;2023-05-10T17:38:02;5.73;;;2.10;;
19262;SDS011;9765;52.354;20.884;2023-05-10T17:40:29;5.83;;;1.90;;
19262;SDS011;9765;52.354;20.884;2023-05-10T17:42:57;7.07;;;1.93;;
19262;SDS011;9765;52.354;20.884;2023-05-10T17:45:26;13.20;;;2.20;;
19262;SDS011;9765;52.354;20.884;2023-05-10T17:47:52;12.77;;;2.50;;
19262;SDS011;9765;52.354;20.884;2023-05-10T17:50:20;6.60;;;2.00;;
19262;SDS011;9765;52.354;20.884;2023-05-10T17:52:47;4.43;;;2.03;;
19262;SDS011;9765;52.354;20.884;2023-05-10T17:55:16;10.03;;;1.83;;
19262;SDS011;9765;52.354;20.884;2023-05-10T17:57:44;7.97;;;1.83;;
19262;SDS011;9765;52.354;20.884;2023-05-10T18:00:12;12.73;;;2.37;;
19262;SDS011;9765;52.354;20.884;2023-05-10T18:02:41;10.77;;;1.97;;
19262;SDS011;9765;52.354;20.884;2023-05-10T18:05:11;5.73;;;2.30;;
19262;SDS011;9765;52.354;20.884;2023-05-10T18:07:38;7.17;;;2.07;;
19262;SDS011;9765;52.354;20.884;2023-05-10T18:10:05;9.97;;;2.10;;
